createdAt,value
2023-03-28T00:00:47.603Z,0.90
2023-03-28T00:03:14.512Z,0.76
2023-03-28T00:05:41.662Z,0.64
2023-03-28T00:08:09.085Z,0.49
2023-03-28T00:10:35.456Z,0.36
2023-03-28T00:13:01.902Z,0.25
2023-03-28T00:15:28.716Z,0.16
2023-03-28T00:17:55.209Z,0.03
2023-03-28T00:20:21.686Z,-0.05
2023-03-28T00:22:48.133Z,-0.10
2023-03-28T00:25:14.582Z,-0.19
2023-03-28T00:27:41.070Z,-0.22
2023-03-28T00:30:08.196Z,-0.21
2023-03-28T00:32:34.692Z,-0.26
2023-03-28T00:35:01.158Z,-0.26
2023-03-28T00:37:27.902Z,-0.27
2023-03-28T00:39:54.325Z,-0.38
2023-03-28T00:42:22.974Z,-0.46
2023-03-28T00:44:51.819Z,-0.56
2023-03-28T00:47:40.898Z,-0.67
2023-03-28T00:50:13.016Z,-0.76
2023-03-28T00:53:16.952Z,-0.84
2023-03-28T00:56:06.762Z,-0.89
2023-03-28T00:58:42.103Z,-0.95
2023-03-28T01:01:14.035Z,-0.96
2023-03-28T01:03:46.436Z,-0.96
2023-03-28T01:06:15.139Z,-1.03
2023-03-28T01:08:44.538Z,-1.09
2023-03-28T01:11:12.772Z,-1.10
2023-03-28T01:13:44.332Z,-1.03
2023-03-28T01:16:13.500Z,-1.08
2023-03-28T01:18:41.531Z,-1.16
2023-03-28T01:21:36.108Z,-1.23
2023-03-28T01:24:30.401Z,-1.34
2023-03-28T01:27:41.803Z,-1.45
2023-03-28T01:30:34.135Z,-1.50
2023-03-28T01:33:06.398Z,-1.56
2023-03-28T01:35:40.719Z,-1.66
2023-03-28T01:38:48.410Z,-1.67
2023-03-28T01:41:28.051Z,-1.72
2023-03-28T01:44:17.305Z,-1.75
2023-03-28T01:46:51.520Z,-1.81
2023-03-28T01:49:47.969Z,-1.74
2023-03-28T01:52:22.665Z,-1.82
2023-03-28T01:55:11.782Z,-1.83
2023-03-28T01:58:05.181Z,-1.82
2023-03-28T02:00:39.955Z,-1.93
2023-03-28T02:03:21.125Z,-1.99
2023-03-28T02:05:50.242Z,-2.02
2023-03-28T02:08:18.784Z,-1.96
2023-03-28T02:10:46.661Z,-2.00
2023-03-28T02:13:20.621Z,-2.11
2023-03-28T02:15:50.874Z,-2.12
2023-03-28T02:18:21.814Z,-2.16
2023-03-28T02:20:54.906Z,-2.09
2023-03-28T02:23:27.149Z,-2.11
2023-03-28T02:25:53.706Z,-2.07
2023-03-28T02:28:22.862Z,-2.00
2023-03-28T02:30:49.958Z,-1.93
2023-03-28T02:33:39.104Z,-2.01
2023-03-28T02:36:26.981Z,-1.94
2023-03-28T02:39:30.977Z,-1.98
2023-03-28T02:42:52.755Z,-2.03
2023-03-28T02:45:46.840Z,-1.90
2023-03-28T02:48:41.132Z,-1.95
2023-03-28T02:51:46.496Z,-1.95
2023-03-28T02:54:22.971Z,-1.95
2023-03-28T02:57:16.594Z,-2.02
2023-03-28T02:59:58.932Z,-1.90
2023-03-28T03:02:25.587Z,-1.82
2023-03-28T03:04:52.079Z,-1.88
2023-03-28T03:07:19.040Z,-1.96
2023-03-28T03:09:46.883Z,-1.84
2023-03-28T03:12:13.835Z,-1.82
2023-03-28T03:14:40.246Z,-1.78
2023-03-28T03:17:06.695Z,-1.83
2023-03-28T03:19:33.352Z,-1.88
2023-03-28T03:21:59.912Z,-1.93
2023-03-28T03:24:26.341Z,-1.96
2023-03-28T03:26:52.754Z,-1.96
2023-03-28T03:29:19.211Z,-1.94
2023-03-28T03:31:46.085Z,-2.01
2023-03-28T03:34:12.630Z,-2.10
2023-03-28T03:36:40.509Z,-2.02
2023-03-28T03:39:06.971Z,-2.05
2023-03-28T03:41:33.448Z,-2.12
2023-03-28T03:43:59.934Z,-2.15
2023-03-28T03:46:26.519Z,-2.20
2023-03-28T03:48:52.996Z,-2.09
2023-03-28T03:51:19.455Z,-2.01
2023-03-28T03:53:46.764Z,-1.90
2023-03-28T03:56:13.289Z,-1.84
2023-03-28T03:58:39.662Z,-1.82
2023-03-28T04:01:06.481Z,-1.84
2023-03-28T04:03:34.268Z,-1.93
2023-03-28T04:06:02.117Z,-2.00
2023-03-28T04:08:28.730Z,-2.07
2023-03-28T04:10:55.136Z,-2.15
2023-03-28T04:13:21.550Z,-2.21
2023-03-28T04:15:47.986Z,-2.17
2023-03-28T04:18:15.509Z,-2.24
2023-03-28T04:20:43.445Z,-2.35
2023-03-28T04:23:10.117Z,-2.36
2023-03-28T04:25:36.866Z,-2.39
2023-03-28T04:28:03.504Z,-2.40
2023-03-28T04:30:30.040Z,-2.48
2023-03-28T04:32:56.462Z,-2.51
2023-03-28T04:35:24.071Z,-2.46
2023-03-28T04:37:50.494Z,-2.51
2023-03-28T04:40:17.798Z,-2.60
2023-03-28T04:42:44.638Z,-2.67
2023-03-28T04:45:11.543Z,-2.62
2023-03-28T04:47:40.038Z,-2.72
2023-03-28T04:50:10.991Z,-2.82
2023-03-28T04:52:37.422Z,-2.93
2023-03-28T04:55:04.734Z,-2.87
2023-03-28T04:57:31.184Z,-2.89
2023-03-28T04:59:57.867Z,-2.80
2023-03-28T05:02:24.343Z,-2.80
2023-03-28T05:04:51.092Z,-2.84
2023-03-28T05:07:17.550Z,-2.85
2023-03-28T05:09:44.543Z,-2.92
2023-03-28T05:12:10.967Z,-2.91
2023-03-28T05:14:37.364Z,-2.80
2023-03-28T05:17:03.738Z,-2.83
2023-03-28T05:19:30.276Z,-2.92
2023-03-28T05:21:56.804Z,-2.91
2023-03-28T05:24:23.223Z,-2.78
2023-03-28T05:26:49.587Z,-2.63
2023-03-28T05:29:16.011Z,-2.64
2023-03-28T05:31:42.543Z,-2.67
2023-03-28T05:34:09.041Z,-2.68
2023-03-28T05:36:35.663Z,-2.62
2023-03-28T05:39:02.021Z,-2.55
2023-03-28T05:41:28.450Z,-2.57
2023-03-28T05:43:54.862Z,-2.46
2023-03-28T05:46:21.327Z,-2.31
2023-03-28T05:48:49.548Z,-2.22
2023-03-28T05:51:16.999Z,-2.07
2023-03-28T05:53:43.670Z,-1.84
2023-03-28T05:56:10.625Z,-1.62
2023-03-28T05:58:37.121Z,-1.47
2023-03-28T06:01:04.482Z,-1.32
2023-03-28T06:03:32.132Z,-1.16
2023-03-28T06:05:58.901Z,-0.89
2023-03-28T06:08:26.959Z,-0.68
2023-03-28T06:10:53.358Z,-0.45
2023-03-28T06:13:19.775Z,-0.23
2023-03-28T06:15:46.386Z,-0.04
2023-03-28T06:18:12.836Z,0.12
2023-03-28T06:20:39.422Z,0.27
2023-03-28T06:23:05.956Z,0.34
2023-03-28T06:25:32.330Z,0.45
2023-03-28T06:27:58.699Z,0.61
2023-03-28T06:30:25.178Z,0.79
2023-03-28T06:32:51.713Z,1.12
2023-03-28T06:35:18.478Z,1.38
2023-03-28T06:37:44.883Z,1.49
2023-03-28T06:40:11.709Z,1.60
2023-03-28T06:42:38.172Z,1.83
2023-03-28T06:45:04.888Z,2.07
2023-03-28T06:47:31.546Z,2.23
2023-03-28T06:49:57.952Z,2.34
2023-03-28T06:52:24.474Z,2.33
2023-03-28T06:54:51.659Z,2.22
2023-03-28T06:57:18.123Z,2.16
2023-03-28T06:59:44.615Z,2.19
2023-03-28T07:02:11.565Z,2.18
2023-03-28T07:04:38.087Z,2.11
2023-03-28T07:07:04.526Z,2.15
2023-03-28T07:09:31.298Z,2.22
2023-03-28T07:11:57.666Z,2.34
2023-03-28T07:14:24.113Z,2.69
2023-03-28T07:16:50.576Z,3.17
2023-03-28T07:19:17.009Z,3.56
2023-03-28T07:21:43.492Z,3.97
2023-03-28T07:24:10.284Z,4.15
2023-03-28T07:26:36.758Z,4.14
2023-03-28T07:29:03.592Z,4.37
2023-03-28T07:31:30.012Z,4.35
2023-03-28T07:33:59.566Z,4.60
2023-03-28T07:36:27.801Z,5.07
2023-03-28T07:38:54.344Z,5.60
2023-03-28T07:41:22.465Z,6.07
2023-03-28T07:43:48.984Z,6.81
2023-03-28T07:46:16.369Z,6.86
2023-03-28T07:48:43.865Z,7.04
2023-03-28T07:51:11.222Z,7.55
2023-03-28T07:53:38.010Z,7.72
2023-03-28T07:56:06.305Z,7.80
2023-03-28T07:58:32.755Z,7.97
2023-03-28T08:01:06.167Z,8.16
2023-03-28T08:03:32.793Z,7.84
2023-03-28T08:06:09.239Z,7.97
2023-03-28T08:08:40.149Z,8.59
2023-03-28T08:11:07.320Z,9.70
2023-03-28T08:13:33.796Z,9.37
2023-03-28T08:16:01.283Z,8.69
2023-03-28T08:18:27.779Z,8.14
2023-03-28T08:21:01.056Z,7.83
2023-03-28T08:23:28.308Z,7.76
2023-03-28T08:26:04.909Z,7.51
2023-03-28T08:28:35.881Z,7.35
2023-03-28T08:31:09.432Z,7.18
2023-03-28T08:33:36.201Z,7.03
2023-03-28T08:36:02.785Z,6.97
2023-03-28T08:38:29.357Z,7.28
2023-03-28T08:41:18.930Z,6.89
2023-03-28T08:44:03.799Z,6.88
2023-03-28T08:46:30.853Z,7.78
2023-03-28T08:48:59.729Z,8.97
2023-03-28T08:51:30.043Z,9.87
2023-03-28T08:54:24.210Z,10.09
2023-03-28T08:56:57.209Z,9.16
2023-03-28T08:59:38.007Z,7.87
2023-03-28T09:02:17.595Z,7.60
2023-03-28T09:04:44.970Z,7.46
2023-03-28T09:07:54.662Z,8.47
2023-03-28T09:10:27.920Z,9.15
2023-03-28T09:13:21.425Z,8.96
2023-03-28T09:15:53.856Z,8.90
2023-03-28T09:18:48.383Z,9.08
2023-03-28T09:21:27.685Z,9.04
2023-03-28T09:24:29.460Z,9.31
2023-03-28T09:27:11.666Z,9.33
2023-03-28T09:29:41.769Z,9.84
2023-03-28T09:32:26.323Z,9.21
2023-03-28T09:34:52.793Z,9.00
2023-03-28T09:37:30.860Z,8.58
2023-03-28T09:40:16.459Z,8.59
2023-03-28T09:43:04.639Z,8.41
2023-03-28T09:45:40.850Z,8.33
2023-03-28T09:48:20.020Z,8.24
2023-03-28T09:50:46.967Z,8.34
2023-03-28T09:53:33.044Z,8.02
2023-03-28T09:56:19.627Z,8.14
2023-03-28T09:58:52.348Z,7.87
2023-03-28T10:01:44.108Z,7.80
2023-03-28T10:04:19.432Z,7.97
2023-03-28T10:06:47.999Z,7.86
2023-03-28T10:09:25.055Z,7.74
2023-03-28T10:11:56.417Z,7.79
2023-03-28T10:14:42.408Z,7.87
2023-03-28T10:17:26.834Z,8.13
2023-03-28T10:19:58.779Z,8.26
2023-03-28T10:22:37.567Z,8.01
2023-03-28T10:25:06.203Z,8.18
2023-03-28T10:27:41.632Z,8.04
2023-03-28T10:30:14.096Z,8.08
2023-03-28T10:32:40.998Z,8.15
2023-03-28T10:35:16.108Z,8.23
2023-03-28T10:37:42.976Z,8.19
2023-03-28T10:40:23.451Z,8.02
2023-03-28T10:42:51.214Z,7.84
2023-03-28T10:45:33.535Z,7.83
2023-03-28T10:48:03.284Z,7.77
2023-03-28T10:50:45.979Z,7.87
2023-03-28T10:53:44.526Z,7.78
2023-03-28T10:56:23.074Z,7.78
2023-03-28T10:59:04.474Z,7.62
2023-03-28T11:01:52.890Z,7.41
2023-03-28T11:04:53.943Z,7.36
2023-03-28T11:07:42.115Z,7.14
2023-03-28T11:10:24.891Z,7.02
2023-03-28T11:13:13.002Z,6.83
2023-03-28T11:16:19.788Z,6.96
2023-03-28T11:19:02.647Z,7.08
2023-03-28T11:21:39.595Z,7.36
2023-03-28T11:24:27.491Z,7.50
2023-03-28T11:27:16.131Z,7.70
2023-03-28T11:30:09.847Z,7.60
2023-03-28T11:32:45.587Z,7.59
2023-03-28T11:35:15.364Z,7.60
2023-03-28T11:37:55.178Z,7.54
2023-03-28T11:40:21.570Z,7.62
2023-03-28T11:42:53.922Z,7.39
2023-03-28T11:45:42.518Z,7.28
2023-03-28T11:48:22.580Z,7.16
2023-03-28T11:50:58.986Z,7.26
2023-03-28T11:53:47.477Z,7.22
2023-03-28T11:56:32.694Z,7.28
2023-03-28T11:59:06.146Z,7.33
2023-03-28T12:01:37.963Z,7.29
2023-03-28T12:04:21.090Z,7.32
2023-03-28T12:07:02.210Z,7.41
2023-03-28T12:09:39.419Z,7.40
2023-03-28T12:12:18.128Z,7.08
2023-03-28T12:15:00.752Z,6.96
2023-03-28T12:17:31.107Z,6.94
2023-03-28T12:19:57.615Z,6.96
2023-03-28T12:22:34.652Z,6.85
2023-03-28T12:25:07.652Z,6.93
2023-03-28T12:27:42.129Z,6.92
2023-03-28T12:30:11.337Z,6.82
2023-03-28T12:32:56.605Z,6.79
2023-03-28T12:35:52.204Z,6.79
2023-03-28T12:38:37.234Z,6.85
2023-03-28T12:41:09.365Z,6.82
2023-03-28T12:43:58.708Z,6.83
2023-03-28T12:46:36.499Z,7.05
2023-03-28T12:49:12.098Z,6.96
2023-03-28T12:51:48.822Z,7.07
2023-03-28T12:54:15.326Z,7.08
2023-03-28T12:56:46.488Z,7.21
2023-03-28T12:59:36.003Z,7.44
2023-03-28T13:02:18.150Z,7.40
2023-03-28T13:05:09.313Z,7.47
2023-03-28T13:08:04.351Z,7.49
2023-03-28T13:10:44.914Z,7.46
2023-03-28T13:13:19.535Z,7.64
2023-03-28T13:15:54.926Z,7.32
2023-03-28T13:18:21.678Z,7.27
2023-03-28T13:20:53.910Z,7.44
2023-03-28T13:23:46.702Z,7.43
2023-03-28T13:26:13.803Z,7.30
2023-03-28T13:28:52.756Z,7.44
2023-03-28T13:31:24.507Z,7.52
2023-03-28T13:34:01.892Z,7.43
2023-03-28T13:36:33.312Z,7.53
2023-03-28T13:39:24.158Z,7.52
2023-03-28T13:41:50.644Z,7.49
2023-03-28T13:44:21.004Z,7.44
2023-03-28T13:46:53.334Z,7.41
2023-03-28T13:49:40.413Z,7.24
2023-03-28T13:52:22.952Z,7.15
2023-03-28T13:54:54.100Z,7.01
2023-03-28T13:57:23.468Z,6.90
2023-03-28T13:59:59.548Z,6.76
2023-03-28T14:02:28.833Z,6.84
2023-03-28T14:05:03.633Z,6.85
2023-03-28T14:07:30.662Z,6.74
2023-03-28T14:09:58.161Z,6.78
2023-03-28T14:12:28.179Z,6.68
2023-03-28T14:14:58.069Z,6.72
2023-03-28T14:17:33.918Z,6.64
2023-03-28T14:20:06.662Z,6.70
2023-03-28T14:22:45.706Z,6.64
2023-03-28T14:25:21.613Z,6.61
2023-03-28T14:27:53.862Z,6.57
2023-03-28T14:30:29.410Z,6.57
2023-03-28T14:33:08.753Z,6.66
2023-03-28T14:35:37.321Z,6.70
2023-03-28T14:38:05.780Z,6.78
2023-03-28T14:40:38.608Z,6.74
2023-03-28T14:43:06.153Z,6.78
2023-03-28T14:45:38.259Z,6.79
2023-03-28T14:48:12.622Z,6.74
2023-03-28T14:50:40.503Z,6.67
2023-03-28T14:53:12.583Z,6.50
2023-03-28T14:55:41.754Z,6.07
2023-03-28T14:58:13.251Z,5.86
2023-03-28T15:00:46.076Z,5.59
2023-03-28T15:03:17.101Z,5.44
2023-03-28T15:05:45.259Z,5.42
2023-03-28T15:08:34.135Z,5.46
2023-03-28T15:11:06.850Z,5.43
2023-03-28T15:13:38.850Z,5.50
2023-03-28T15:16:08.067Z,5.42
2023-03-28T15:18:47.029Z,5.48
2023-03-28T15:21:14.791Z,5.41
2023-03-28T15:23:57.748Z,5.38
2023-03-28T15:26:29.265Z,5.30
2023-03-28T15:28:57.632Z,5.27
2023-03-28T15:31:25.863Z,5.28
2023-03-28T15:33:53.642Z,5.34
2023-03-28T15:36:25.648Z,5.27
2023-03-28T15:39:00.204Z,5.29
2023-03-28T15:41:29.030Z,5.22
2023-03-28T15:43:55.491Z,5.18
2023-03-28T15:46:29.120Z,5.17
2023-03-28T15:49:01.079Z,5.11
2023-03-28T15:51:29.920Z,5.06
2023-03-28T15:53:58.790Z,5.05
2023-03-28T15:56:30.951Z,5.04
2023-03-28T15:59:03.369Z,5.06
2023-03-28T16:01:32.120Z,5.03
2023-03-28T16:04:31.044Z,5.02
2023-03-28T16:07:13.604Z,4.97
2023-03-28T16:09:43.023Z,4.96
2023-03-28T16:12:14.600Z,4.90
2023-03-28T16:14:46.417Z,4.90
2023-03-28T16:17:12.882Z,4.87
2023-03-28T16:19:39.276Z,4.86
2023-03-28T16:22:05.798Z,4.84
2023-03-28T16:24:32.227Z,4.86
2023-03-28T16:26:59.842Z,4.85
2023-03-28T16:29:26.235Z,4.85
2023-03-28T16:31:52.793Z,4.82
2023-03-28T16:34:19.247Z,4.82
2023-03-28T16:36:45.822Z,4.84
2023-03-28T16:39:12.254Z,4.85
2023-03-28T16:41:38.714Z,4.84
2023-03-28T16:44:05.308Z,4.87
2023-03-28T16:46:31.922Z,4.90
2023-03-28T16:48:58.495Z,4.92
2023-03-28T16:51:25.004Z,4.94
2023-03-28T16:53:51.444Z,4.96
2023-03-28T16:56:18.440Z,4.97
2023-03-28T16:58:44.985Z,4.95
2023-03-28T17:01:18.852Z,4.95
2023-03-28T17:03:46.437Z,5.00
2023-03-28T17:06:13.700Z,5.00
2023-03-28T17:08:40.481Z,5.04
2023-03-28T17:11:09.916Z,5.05
2023-03-28T17:13:37.541Z,5.07
2023-03-28T17:16:04.880Z,5.10
2023-03-28T17:18:31.832Z,5.06
2023-03-28T17:21:10.189Z,5.06
2023-03-28T17:23:38.212Z,5.06
2023-03-28T17:26:07.847Z,5.07
2023-03-28T17:28:38.798Z,5.03
2023-03-28T17:31:07.335Z,5.02
2023-03-28T17:33:33.968Z,5.01
2023-03-28T17:36:00.806Z,4.97
2023-03-28T17:38:27.982Z,4.95
2023-03-28T17:40:54.492Z,4.94
2023-03-28T17:43:20.909Z,4.92
2023-03-28T17:45:52.904Z,4.90
2023-03-28T17:48:19.882Z,4.89
2023-03-28T17:50:53.752Z,4.88
2023-03-28T17:53:20.753Z,4.88
2023-03-28T17:55:47.570Z,4.87
2023-03-28T17:58:14.914Z,4.86
2023-03-28T18:00:41.868Z,4.85
2023-03-28T18:03:08.356Z,4.84
2023-03-28T18:05:34.830Z,4.84
2023-03-28T18:08:01.460Z,4.81
2023-03-28T18:10:27.847Z,4.85
2023-03-28T18:12:54.310Z,4.87
2023-03-28T18:15:21.236Z,4.86
2023-03-28T18:17:47.838Z,4.88
2023-03-28T18:20:14.521Z,4.85
2023-03-28T18:22:42.355Z,4.86
2023-03-28T18:25:09.515Z,4.85
2023-03-28T18:27:35.972Z,4.85
2023-03-28T18:30:06.436Z,4.86
2023-03-28T18:32:32.895Z,4.85
2023-03-28T18:34:59.562Z,4.86
2023-03-28T18:37:27.068Z,4.84
2023-03-28T18:39:54.094Z,4.85
2023-03-28T18:42:20.958Z,4.86
2023-03-28T18:44:47.393Z,4.86
2023-03-28T18:47:14.391Z,4.85
2023-03-28T18:49:40.995Z,4.86
2023-03-28T18:52:10.526Z,4.84
2023-03-28T18:54:37.525Z,4.86
2023-03-28T18:57:04.627Z,4.86
2023-03-28T18:59:31.207Z,4.87
2023-03-28T19:01:58.581Z,4.86
2023-03-28T19:04:26.410Z,4.87
2023-03-28T19:06:53.129Z,4.85
2023-03-28T19:09:19.868Z,4.84
2023-03-28T19:11:46.299Z,4.86
2023-03-28T19:14:13.065Z,4.85
2023-03-28T19:16:39.531Z,4.85
2023-03-28T19:19:05.969Z,4.87
2023-03-28T19:21:32.401Z,4.89
2023-03-28T19:23:58.790Z,4.93
2023-03-28T19:26:26.179Z,4.95
2023-03-28T19:28:53.496Z,4.95
2023-03-28T19:31:21.933Z,4.97
2023-03-28T19:33:48.697Z,4.98
2023-03-28T19:36:15.443Z,5.03
2023-03-28T19:38:42.028Z,5.05
2023-03-28T19:41:15.965Z,5.04
2023-03-28T19:43:42.687Z,5.04
2023-03-28T19:46:13.645Z,5.02
2023-03-28T19:48:40.135Z,5.00
2023-03-28T19:51:06.770Z,4.98
2023-03-28T19:53:33.446Z,4.92
2023-03-28T19:56:00.371Z,4.90
2023-03-28T19:58:28.348Z,4.89
2023-03-28T20:00:56.806Z,4.90
2023-03-28T20:03:23.278Z,4.91
2023-03-28T20:05:49.769Z,4.92
2023-03-28T20:08:18.793Z,4.92
2023-03-28T20:10:48.018Z,4.93
2023-03-28T20:13:14.531Z,4.93
2023-03-28T20:15:43.043Z,4.91
2023-03-28T20:18:14.364Z,4.92
2023-03-28T20:20:43.565Z,4.89
2023-03-28T20:23:11.655Z,4.90
2023-03-28T20:25:38.144Z,4.90
2023-03-28T20:28:04.641Z,4.90
2023-03-28T20:30:32.099Z,4.87
2023-03-28T20:32:58.888Z,4.87
2023-03-28T20:35:27.210Z,4.86
2023-03-28T20:37:54.039Z,4.86
2023-03-28T20:40:22.341Z,4.84
2023-03-28T20:42:50.804Z,4.82
2023-03-28T20:45:23.232Z,4.82
2023-03-28T20:47:56.211Z,4.81
2023-03-28T20:50:24.024Z,4.80
2023-03-28T20:52:51.680Z,4.80
2023-03-28T20:55:18.801Z,4.80
2023-03-28T20:57:45.471Z,4.82
2023-03-28T21:00:14.694Z,4.79
2023-03-28T21:02:41.497Z,4.80
2023-03-28T21:05:08.351Z,4.77
2023-03-28T21:07:34.947Z,4.75
2023-03-28T21:10:02.022Z,4.72
2023-03-28T21:12:28.569Z,4.72
2023-03-28T21:14:57.884Z,4.74
2023-03-28T21:17:29.123Z,4.76
2023-03-28T21:19:55.813Z,4.73
2023-03-28T21:22:22.421Z,4.72
2023-03-28T21:24:49.007Z,4.74
2023-03-28T21:27:17.387Z,4.73
2023-03-28T21:29:44.257Z,4.76
2023-03-28T21:32:11.658Z,4.74
2023-03-28T21:34:38.985Z,4.74
2023-03-28T21:37:05.881Z,4.72
2023-03-28T21:39:32.511Z,4.73
2023-03-28T21:41:59.980Z,4.73
2023-03-28T21:44:26.418Z,4.73
2023-03-28T21:46:52.900Z,4.76
2023-03-28T21:49:19.497Z,4.74
2023-03-28T21:51:46.021Z,4.73
2023-03-28T21:54:12.813Z,4.72
2023-03-28T21:56:39.353Z,4.72
2023-03-28T21:59:06.612Z,4.73
2023-03-28T22:01:33.660Z,4.72
2023-03-28T22:04:00.782Z,4.71
2023-03-28T22:06:27.557Z,4.73
2023-03-28T22:08:55.092Z,4.73
2023-03-28T22:11:28.446Z,4.73
2023-03-28T22:14:02.059Z,4.73
2023-03-28T22:16:30.354Z,4.71
2023-03-28T22:18:57.073Z,4.70
2023-03-28T22:21:24.915Z,4.71
2023-03-28T22:23:54.386Z,4.73
2023-03-28T22:26:20.940Z,4.73
2023-03-28T22:28:47.391Z,4.71
2023-03-28T22:31:13.897Z,4.71
2023-03-28T22:33:40.298Z,4.69
2023-03-28T22:36:07.258Z,4.69
2023-03-28T22:38:33.732Z,4.70
2023-03-28T22:41:00.628Z,4.68
2023-03-28T22:43:29.048Z,4.66
2023-03-28T22:45:56.460Z,4.66
2023-03-28T22:48:22.913Z,4.65
2023-03-28T22:50:50.301Z,4.64
2023-03-28T22:53:16.695Z,4.63
2023-03-28T22:55:43.938Z,4.61
2023-03-28T22:58:11.641Z,4.62
2023-03-28T23:00:38.761Z,4.63
2023-03-28T23:03:05.469Z,4.61
2023-03-28T23:05:32.045Z,4.61
2023-03-28T23:07:59.979Z,4.62
2023-03-28T23:10:26.419Z,4.64
2023-03-28T23:12:53.128Z,4.63
2023-03-28T23:15:19.642Z,4.66
2023-03-28T23:17:46.177Z,4.63
2023-03-28T23:20:14.622Z,4.62
2023-03-28T23:22:43.524Z,4.62
2023-03-28T23:25:12.351Z,4.62
2023-03-28T23:27:39.837Z,4.62
2023-03-28T23:30:07.559Z,4.64
2023-03-28T23:32:34.107Z,4.63
2023-03-28T23:35:00.589Z,4.64
2023-03-28T23:37:27.331Z,4.67
2023-03-28T23:39:55.271Z,4.64
2023-03-28T23:42:22.420Z,4.62
2023-03-28T23:44:48.953Z,4.62
2023-03-28T23:47:15.800Z,4.62
2023-03-28T23:49:42.513Z,4.65
2023-03-28T23:52:09.874Z,4.65
2023-03-28T23:54:36.277Z,4.66
2023-03-28T23:57:03.557Z,4.66
2023-03-28T23:59:30.035Z,4.65
